sensor_id;sensor_type;location;lat;lon;timestamp;temperature;humidity
23544;DHT22;11950;51.230;4.012;2023-09-12T00:00:04;20.30;99.90
23544;DHT22;11950;51.230;4.012;2023-09-12T00:02:38;20.30;99.90
23544;DHT22;11950;51.230;4.012;2023-09-12T00:05:05;20.30;99.90
23544;DHT22;11950;51.230;4.012;2023-09-12T00:07:31;20.40;99.90
23544;DHT22;11950;51.230;4.012;2023-09-12T00:09:58;20.40;99.90
23544;DHT22;11950;51.230;4.012;2023-09-12T00:12:24;20.50;99.90
23544;DHT22;11950;51.230;4.012;2023-09-12T00:14:53;20.40;99.90
23544;DHT22;11950;51.230;4.012;2023-09-12T00:17:20;20.50;99.90
23544;DHT22;11950;51.230;4.012;2023-09-12T00:19:46;20.40;99.90
23544;DHT22;11950;51.230;4.012;2023-09-12T00:22:12;20.50;99.90
23544;DHT22;11950;51.230;4.012;2023-09-12T00:24:38;20.50;99.90
23544;DHT22;11950;51.230;4.012;2023-09-12T00:27:05;20.50;99.90
23544;DHT22;11950;51.230;4.012;2023-09-12T00:29:32;20.50;99.90
23544;DHT22;11950;51.230;4.012;2023-09-12T00:31:58;20.50;99.90
23544;DHT22;11950;51.230;4.012;2023-09-12T00:34:24;20.50;99.90
23544;DHT22;11950;51.230;4.012;2023-09-12T00:36:51;20.50;99.90
23544;DHT22;11950;51.230;4.012;2023-09-12T00:39:17;20.50;99.90
23544;DHT22;11950;51.230;4.012;2023-09-12T00:41:44;20.50;99.90
23544;DHT22;11950;51.230;4.012;2023-09-12T00:44:10;20.50;99.90
23544;DHT22;11950;51.230;4.012;2023-09-12T00:46:37;20.50;99.90
23544;DHT22;11950;51.230;4.012;2023-09-12T00:49:06;20.50;99.90
23544;DHT22;11950;51.230;4.012;2023-09-12T00:51:34;20.60;99.90
23544;DHT22;11950;51.230;4.012;2023-09-12T00:54:01;20.60;99.90
23544;DHT22;11950;51.230;4.012;2023-09-12T00:56:28;20.60;99.90
23544;DHT22;11950;51.230;4.012;2023-09-12T00:58:55;20.60;99.90
23544;DHT22;11950;51.230;4.012;2023-09-12T01:01:21;20.60;99.90
23544;DHT22;11950;51.230;4.012;2023-09-12T01:03:49;20.60;99.90
23544;DHT22;11950;51.230;4.012;2023-09-12T01:06:18;20.60;99.90
23544;DHT22;11950;51.230;4.012;2023-09-12T01:08:46;20.60;99.90
23544;DHT22;11950;51.230;4.012;2023-09-12T01:11:13;20.60;99.90
23544;DHT22;11950;51.230;4.012;2023-09-12T01:13:40;20.60;99.90
23544;DHT22;11950;51.230;4.012;2023-09-12T01:16:06;20.60;99.90
23544;DHT22;11950;51.230;4.012;2023-09-12T01:18:32;20.60;99.90
23544;DHT22;11950;51.230;4.012;2023-09-12T01:27:28;20.70;99.90
23544;DHT22;11950;51.230;4.012;2023-09-12T01:30:02;20.70;99.90
23544;DHT22;11950;51.230;4.012;2023-09-12T01:32:31;20.70;99.90
23544;DHT22;11950;51.230;4.012;2023-09-12T01:34:58;20.70;99.90
23544;DHT22;11950;51.230;4.012;2023-09-12T01:37:24;20.70;99.90
23544;DHT22;11950;51.230;4.012;2023-09-12T01:39:50;20.70;99.90
23544;DHT22;11950;51.230;4.012;2023-09-12T01:42:20;20.70;99.90
23544;DHT22;11950;51.230;4.012;2023-09-12T01:44:49;20.70;99.90
23544;DHT22;11950;51.230;4.012;2023-09-12T01:47:16;20.70;99.90
23544;DHT22;11950;51.230;4.012;2023-09-12T01:49:47;20.70;99.90
23544;DHT22;11950;51.230;4.012;2023-09-12T01:52:15;20.70;99.90
23544;DHT22;11950;51.230;4.012;2023-09-12T01:54:42;20.70;99.90
23544;DHT22;11950;51.230;4.012;2023-09-12T01:57:10;20.70;99.90
23544;DHT22;11950;51.230;4.012;2023-09-12T01:59:37;20.70;99.90
23544;DHT22;11950;51.230;4.012;2023-09-12T02:02:03;20.70;99.90
23544;DHT22;11950;51.230;4.012;2023-09-12T02:04:30;20.70;99.90
23544;DHT22;11950;51.230;4.012;2023-09-12T02:06:56;20.70;99.90
23544;DHT22;11950;51.230;4.012;2023-09-12T02:09:24;20.70;99.90
23544;DHT22;11950;51.230;4.012;2023-09-12T02:11:51;20.70;99.90
23544;DHT22;11950;51.230;4.012;2023-09-12T02:14:17;20.70;99.90
23544;DHT22;11950;51.230;4.012;2023-09-12T02:16:46;20.70;99.90
23544;DHT22;11950;51.230;4.012;2023-09-12T02:19:13;20.70;99.90
23544;DHT22;11950;51.230;4.012;2023-09-12T02:21:39;20.60;99.90
23544;DHT22;11950;51.230;4.012;2023-09-12T02:24:06;20.60;99.90
23544;DHT22;11950;51.230;4.012;2023-09-12T02:26:32;20.60;99.90
23544;DHT22;11950;51.230;4.012;2023-09-12T02:29:03;20.70;99.90
23544;DHT22;11950;51.230;4.012;2023-09-12T02:31:31;20.70;99.90
23544;DHT22;11950;51.230;4.012;2023-09-12T02:33:58;20.60;99.90
23544;DHT22;11950;51.230;4.012;2023-09-12T02:36:24;20.60;99.90
23544;DHT22;11950;51.230;4.012;2023-09-12T02:38:50;20.60;99.90
23544;DHT22;11950;51.230;4.012;2023-09-12T02:41:17;20.60;99.90
23544;DHT22;11950;51.230;4.012;2023-09-12T02:43:43;20.60;99.90
23544;DHT22;11950;51.230;4.012;2023-09-12T02:46:10;20.60;99.90
23544;DHT22;11950;51.230;4.012;2023-09-12T02:48:36;20.60;99.90
23544;DHT22;11950;51.230;4.012;2023-09-12T02:51:02;20.60;99.90
23544;DHT22;11950;51.230;4.012;2023-09-12T02:53:29;20.60;99.90
23544;DHT22;11950;51.230;4.012;2023-09-12T02:55:55;20.60;99.90
23544;DHT22;11950;51.230;4.012;2023-09-12T02:58:21;20.60;99.90
23544;DHT22;11950;51.230;4.012;2023-09-12T03:00:50;20.60;99.90
23544;DHT22;11950;51.230;4.012;2023-09-12T03:03:20;20.50;99.90
23544;DHT22;11950;51.230;4.012;2023-09-12T03:05:47;20.50;99.90
23544;DHT22;11950;51.230;4.012;2023-09-12T03:08:14;20.50;99.90
23544;DHT22;11950;51.230;4.012;2023-09-12T03:10:40;20.50;99.90
23544;DHT22;11950;51.230;4.012;2023-09-12T03:13:06;20.50;99.90
23544;DHT22;11950;51.230;4.012;2023-09-12T03:15:36;20.50;99.90
23544;DHT22;11950;51.230;4.012;2023-09-12T03:18:04;20.40;99.90
23544;DHT22;11950;51.230;4.012;2023-09-12T03:20:31;20.40;99.90
23544;DHT22;11950;51.230;4.012;2023-09-12T03:22:57;20.40;99.90
23544;DHT22;11950;51.230;4.012;2023-09-12T03:25:23;20.40;99.90
23544;DHT22;11950;51.230;4.012;2023-09-12T03:27:49;20.40;99.90
23544;DHT22;11950;51.230;4.012;2023-09-12T03:30:16;20.40;99.90
23544;DHT22;11950;51.230;4.012;2023-09-12T03:32:42;20.40;99.90
23544;DHT22;11950;51.230;4.012;2023-09-12T03:35:09;20.40;99.90
23544;DHT22;11950;51.230;4.012;2023-09-12T03:37:35;20.40;99.90
23544;DHT22;11950;51.230;4.012;2023-09-12T03:40:07;20.40;99.90
23544;DHT22;11950;51.230;4.012;2023-09-12T03:42:33;20.40;99.90
23544;DHT22;11950;51.230;4.012;2023-09-12T03:45:00;20.40;99.90
23544;DHT22;11950;51.230;4.012;2023-09-12T03:47:26;20.40;99.90
23544;DHT22;11950;51.230;4.012;2023-09-12T03:49:52;20.40;99.90
23544;DHT22;11950;51.230;4.012;2023-09-12T03:52:18;20.40;99.90
23544;DHT22;11950;51.230;4.012;2023-09-12T03:54:45;20.30;99.90
23544;DHT22;11950;51.230;4.012;2023-09-12T03:57:11;20.30;99.90
23544;DHT22;11950;51.230;4.012;2023-09-12T03:59:37;20.30;99.90
23544;DHT22;11950;51.230;4.012;2023-09-12T04:02:04;20.20;99.90
23544;DHT22;11950;51.230;4.012;2023-09-12T04:04:30;20.20;99.90
23544;DHT22;11950;51.230;4.012;2023-09-12T04:06:56;20.20;99.90
23544;DHT22;11950;51.230;4.012;2023-09-12T04:09:22;20.20;99.90
23544;DHT22;11950;51.230;4.012;2023-09-12T04:11:49;20.20;99.90
23544;DHT22;11950;51.230;4.012;2023-09-12T04:14:15;20.20;99.90
23544;DHT22;11950;51.230;4.012;2023-09-12T04:16:41;20.20;99.90
23544;DHT22;11950;51.230;4.012;2023-09-12T04:19:07;20.20;99.90
23544;DHT22;11950;51.230;4.012;2023-09-12T04:21:34;20.20;99.90
23544;DHT22;11950;51.230;4.012;2023-09-12T04:24:00;20.20;99.90
23544;DHT22;11950;51.230;4.012;2023-09-12T04:26:26;20.20;99.90
23544;DHT22;11950;51.230;4.012;2023-09-12T04:28:52;20.20;99.90
23544;DHT22;11950;51.230;4.012;2023-09-12T04:31:19;20.20;99.90
23544;DHT22;11950;51.230;4.012;2023-09-12T04:33:46;20.20;99.90
23544;DHT22;11950;51.230;4.012;2023-09-12T04:36:13;20.20;99.90
23544;DHT22;11950;51.230;4.012;2023-09-12T04:38:39;20.20;99.90
23544;DHT22;11950;51.230;4.012;2023-09-12T04:41:06;20.20;99.90
23544;DHT22;11950;51.230;4.012;2023-09-12T04:43:32;20.20;99.90
23544;DHT22;11950;51.230;4.012;2023-09-12T04:45:58;20.30;99.90
23544;DHT22;11950;51.230;4.012;2023-09-12T04:48:25;20.20;99.90
23544;DHT22;11950;51.230;4.012;2023-09-12T04:50:51;20.20;99.90
23544;DHT22;11950;51.230;4.012;2023-09-12T04:53:17;20.20;99.90
23544;DHT22;11950;51.230;4.012;2023-09-12T04:55:44;20.20;99.90
23544;DHT22;11950;51.230;4.012;2023-09-12T04:58:10;20.10;99.90
23544;DHT22;11950;51.230;4.012;2023-09-12T05:00:39;20.10;99.90
23544;DHT22;11950;51.230;4.012;2023-09-12T05:03:06;20.10;99.90
23544;DHT22;11950;51.230;4.012;2023-09-12T05:05:34;20.20;99.90
23544;DHT22;11950;51.230;4.012;2023-09-12T05:08:02;20.20;99.90
23544;DHT22;11950;51.230;4.012;2023-09-12T05:10:30;20.20;99.90
23544;DHT22;11950;51.230;4.012;2023-09-12T05:12:57;20.20;99.90
23544;DHT22;11950;51.230;4.012;2023-09-12T05:15:23;20.20;99.90
23544;DHT22;11950;51.230;4.012;2023-09-12T05:17:50;20.20;99.90
23544;DHT22;11950;51.230;4.012;2023-09-12T05:20:17;20.20;99.90
23544;DHT22;11950;51.230;4.012;2023-09-12T05:22:43;20.20;99.90
23544;DHT22;11950;51.230;4.012;2023-09-12T05:25:10;20.20;99.90
23544;DHT22;11950;51.230;4.012;2023-09-12T05:27:36;20.20;99.90
23544;DHT22;11950;51.230;4.012;2023-09-12T05:30:04;20.20;99.90
23544;DHT22;11950;51.230;4.012;2023-09-12T05:32:30;20.20;99.90
23544;DHT22;11950;51.230;4.012;2023-09-12T05:34:57;20.20;99.90
23544;DHT22;11950;51.230;4.012;2023-09-12T05:37:23;20.20;99.90
23544;DHT22;11950;51.230;4.012;2023-09-12T05:39:50;20.20;99.90
23544;DHT22;11950;51.230;4.012;2023-09-12T05:42:16;20.30;99.90
23544;DHT22;11950;51.230;4.012;2023-09-12T05:44:50;20.20;99.90
23544;DHT22;11950;51.230;4.012;2023-09-12T05:47:21;20.20;99.90
23544;DHT22;11950;51.230;4.012;2023-09-12T05:49:47;20.20;99.90
23544;DHT22;11950;51.230;4.012;2023-09-12T05:52:14;20.20;99.90
23544;DHT22;11950;51.230;4.012;2023-09-12T05:54:40;20.20;99.90
23544;DHT22;11950;51.230;4.012;2023-09-12T05:57:07;20.20;99.90
23544;DHT22;11950;51.230;4.012;2023-09-12T05:59:38;20.20;99.90
23544;DHT22;11950;51.230;4.012;2023-09-12T06:02:06;20.20;99.90
23544;DHT22;11950;51.230;4.012;2023-09-12T06:04:36;20.20;99.90
23544;DHT22;11950;51.230;4.012;2023-09-12T06:07:03;20.10;99.90
23544;DHT22;11950;51.230;4.012;2023-09-12T06:09:29;20.20;99.90
23544;DHT22;11950;51.230;4.012;2023-09-12T06:11:55;20.20;99.90
23544;DHT22;11950;51.230;4.012;2023-09-12T06:14:22;20.20;99.90
23544;DHT22;11950;51.230;4.012;2023-09-12T06:16:48;20.20;99.90
23544;DHT22;11950;51.230;4.012;2023-09-12T06:19:15;20.20;99.90
23544;DHT22;11950;51.230;4.012;2023-09-12T06:21:41;20.20;99.90
23544;DHT22;11950;51.230;4.012;2023-09-12T06:24:16;20.20;99.90
23544;DHT22;11950;51.230;4.012;2023-09-12T06:26:43;20.20;99.90
23544;DHT22;11950;51.230;4.012;2023-09-12T06:29:09;20.20;99.90
23544;DHT22;11950;51.230;4.012;2023-09-12T06:31:36;20.20;99.90
23544;DHT22;11950;51.230;4.012;2023-09-12T06:34:02;20.20;99.90
23544;DHT22;11950;51.230;4.012;2023-09-12T06:36:28;20.30;99.90
23544;DHT22;11950;51.230;4.012;2023-09-12T06:38:56;20.30;99.90
23544;DHT22;11950;51.230;4.012;2023-09-12T06:41:22;20.30;99.90
23544;DHT22;11950;51.230;4.012;2023-09-12T06:43:48;20.30;99.90
23544;DHT22;11950;51.230;4.012;2023-09-12T06:46:15;20.30;99.90
23544;DHT22;11950;51.230;4.012;2023-09-12T06:48:44;20.30;99.90
23544;DHT22;11950;51.230;4.012;2023-09-12T06:51:11;20.30;99.90
23544;DHT22;11950;51.230;4.012;2023-09-12T06:53:38;20.30;99.90
23544;DHT22;11950;51.230;4.012;2023-09-12T06:56:05;20.30;99.90
23544;DHT22;11950;51.230;4.012;2023-09-12T06:58:32;20.30;99.90
23544;DHT22;11950;51.230;4.012;2023-09-12T07:01:02;20.30;99.90
23544;DHT22;11950;51.230;4.012;2023-09-12T07:03:29;20.30;99.90
23544;DHT22;11950;51.230;4.012;2023-09-12T07:05:55;20.30;99.90
23544;DHT22;11950;51.230;4.012;2023-09-12T07:08:22;20.30;99.90
23544;DHT22;11950;51.230;4.012;2023-09-12T07:10:48;20.30;99.90
23544;DHT22;11950;51.230;4.012;2023-09-12T07:13:14;20.30;99.90
23544;DHT22;11950;51.230;4.012;2023-09-12T07:15:40;20.30;99.90
23544;DHT22;11950;51.230;4.012;2023-09-12T07:18:07;20.30;99.90
23544;DHT22;11950;51.230;4.012;2023-09-12T07:20:34;20.20;99.90
23544;DHT22;11950;51.230;4.012;2023-09-12T07:23:00;20.20;99.90
23544;DHT22;11950;51.230;4.012;2023-09-12T07:25:27;20.30;99.90
23544;DHT22;11950;51.230;4.012;2023-09-12T07:27:53;20.30;99.90
23544;DHT22;11950;51.230;4.012;2023-09-12T07:30:19;20.30;99.90
23544;DHT22;11950;51.230;4.012;2023-09-12T07:32:46;20.30;99.90
23544;DHT22;11950;51.230;4.012;2023-09-12T07:35:12;20.30;99.90
23544;DHT22;11950;51.230;4.012;2023-09-12T07:37:38;20.30;99.90
23544;DHT22;11950;51.230;4.012;2023-09-12T07:40:05;20.40;99.90
23544;DHT22;11950;51.230;4.012;2023-09-12T07:42:36;20.40;99.90
23544;DHT22;11950;51.230;4.012;2023-09-12T07:45:02;20.40;99.90
23544;DHT22;11950;51.230;4.012;2023-09-12T07:47:32;20.40;99.90
23544;DHT22;11950;51.230;4.012;2023-09-12T07:49:59;20.40;99.90
23544;DHT22;11950;51.230;4.012;2023-09-12T07:52:27;20.40;99.90
23544;DHT22;11950;51.230;4.012;2023-09-12T07:54:59;20.50;99.90
23544;DHT22;11950;51.230;4.012;2023-09-12T07:57:25;20.50;99.90
23544;DHT22;11950;51.230;4.012;2023-09-12T07:59:51;20.50;99.90
23544;DHT22;11950;51.230;4.012;2023-09-12T08:02:18;20.50;99.90
23544;DHT22;11950;51.230;4.012;2023-09-12T08:04:44;20.50;99.90
23544;DHT22;11950;51.230;4.012;2023-09-12T08:07:10;20.40;99.90
23544;DHT22;11950;51.230;4.012;2023-09-12T08:09:52;20.50;99.90
23544;DHT22;11950;51.230;4.012;2023-09-12T08:12:20;20.50;99.90
23544;DHT22;11950;51.230;4.012;2023-09-12T08:14:47;20.60;99.90
23544;DHT22;11950;51.230;4.012;2023-09-12T08:17:14;20.50;99.90
23544;DHT22;11950;51.230;4.012;2023-09-12T08:19:40;20.60;99.90
23544;DHT22;11950;51.230;4.012;2023-09-12T08:22:08;20.60;99.90
23544;DHT22;11950;51.230;4.012;2023-09-12T08:24:35;20.60;99.90
23544;DHT22;11950;51.230;4.012;2023-09-12T08:27:02;20.60;99.90
23544;DHT22;11950;51.230;4.012;2023-09-12T08:29:29;20.60;99.90
23544;DHT22;11950;51.230;4.012;2023-09-12T08:31:55;20.60;99.90
23544;DHT22;11950;51.230;4.012;2023-09-12T08:34:22;20.70;99.90
23544;DHT22;11950;51.230;4.012;2023-09-12T08:36:50;20.70;99.90
23544;DHT22;11950;51.230;4.012;2023-09-12T08:39:18;20.70;99.90
23544;DHT22;11950;51.230;4.012;2023-09-12T08:41:49;20.70;99.90
23544;DHT22;11950;51.230;4.012;2023-09-12T08:44:16;20.70;99.90
23544;DHT22;11950;51.230;4.012;2023-09-12T08:46:42;20.70;99.90
23544;DHT22;11950;51.230;4.012;2023-09-12T08:49:10;20.70;99.90
23544;DHT22;11950;51.230;4.012;2023-09-12T08:51:40;20.70;99.90
23544;DHT22;11950;51.230;4.012;2023-09-12T08:54:07;20.70;99.90
23544;DHT22;11950;51.230;4.012;2023-09-12T08:56:40;20.70;99.90
23544;DHT22;11950;51.230;4.012;2023-09-12T08:59:08;20.70;99.90
23544;DHT22;11950;51.230;4.012;2023-09-12T09:01:36;20.70;99.90
23544;DHT22;11950;51.230;4.012;2023-09-12T09:04:03;20.80;99.90
23544;DHT22;11950;51.230;4.012;2023-09-12T09:06:31;20.80;99.90
23544;DHT22;11950;51.230;4.012;2023-09-12T09:09:05;20.90;99.90
23544;DHT22;11950;51.230;4.012;2023-09-12T09:11:32;20.90;99.90
23544;DHT22;11950;51.230;4.012;2023-09-12T09:13:58;21.00;99.90
23544;DHT22;11950;51.230;4.012;2023-09-12T09:16:25;21.10;99.90
23544;DHT22;11950;51.230;4.012;2023-09-12T09:19:02;21.10;99.90
23544;DHT22;11950;51.230;4.012;2023-09-12T09:21:32;21.10;99.90
23544;DHT22;11950;51.230;4.012;2023-09-12T09:24:04;21.10;99.90
23544;DHT22;11950;51.230;4.012;2023-09-12T09:26:51;21.20;99.90
23544;DHT22;11950;51.230;4.012;2023-09-12T09:29:26;21.20;99.90
23544;DHT22;11950;51.230;4.012;2023-09-12T09:32:01;21.30;99.90
23544;DHT22;11950;51.230;4.012;2023-09-12T09:34:27;21.30;99.90
23544;DHT22;11950;51.230;4.012;2023-09-12T09:36:56;21.40;99.90
23544;DHT22;11950;51.230;4.012;2023-09-12T09:39:25;21.50;99.90
23544;DHT22;11950;51.230;4.012;2023-09-12T09:41:53;21.50;99.90
23544;DHT22;11950;51.230;4.012;2023-09-12T09:44:22;21.50;99.90
23544;DHT22;11950;51.230;4.012;2023-09-12T09:46:57;21.50;99.90
23544;DHT22;11950;51.230;4.012;2023-09-12T09:49:24;21.50;99.90
23544;DHT22;11950;51.230;4.012;2023-09-12T09:51:50;21.60;99.90
23544;DHT22;11950;51.230;4.012;2023-09-12T09:54:16;21.60;99.90
23544;DHT22;11950;51.230;4.012;2023-09-12T09:56:50;21.70;99.90
23544;DHT22;11950;51.230;4.012;2023-09-12T09:59:21;21.70;99.90
23544;DHT22;11950;51.230;4.012;2023-09-12T10:01:56;21.70;99.90
23544;DHT22;11950;51.230;4.012;2023-09-12T10:04:23;21.70;99.90
23544;DHT22;11950;51.230;4.012;2023-09-12T10:06:50;21.70;99.90
23544;DHT22;11950;51.230;4.012;2023-09-12T10:09:16;21.70;99.90
23544;DHT22;11950;51.230;4.012;2023-09-12T10:11:46;21.70;99.90
23544;DHT22;11950;51.230;4.012;2023-09-12T10:14:15;21.70;99.90
23544;DHT22;11950;51.230;4.012;2023-09-12T10:16:46;21.70;99.90
23544;DHT22;11950;51.230;4.012;2023-09-12T10:24:28;21.80;99.90
23544;DHT22;11950;51.230;4.012;2023-09-12T10:26:56;21.80;99.90
23544;DHT22;11950;51.230;4.012;2023-09-12T10:29:23;21.90;99.90
23544;DHT22;11950;51.230;4.012;2023-09-12T10:31:49;22.00;99.90
23544;DHT22;11950;51.230;4.012;2023-09-12T10:34:16;22.10;99.90
23544;DHT22;11950;51.230;4.012;2023-09-12T10:36:43;22.20;99.90
23544;DHT22;11950;51.230;4.012;2023-09-12T10:39:11;22.30;99.90
23544;DHT22;11950;51.230;4.012;2023-09-12T10:41:39;22.40;99.90
23544;DHT22;11950;51.230;4.012;2023-09-12T10:44:10;22.50;99.90
23544;DHT22;11950;51.230;4.012;2023-09-12T10:46:38;22.60;99.90
23544;DHT22;11950;51.230;4.012;2023-09-12T10:49:09;22.70;99.90
23544;DHT22;11950;51.230;4.012;2023-09-12T10:51:45;22.80;99.90
23544;DHT22;11950;51.230;4.012;2023-09-12T10:54:38;22.90;99.90
23544;DHT22;11950;51.230;4.012;2023-09-12T10:57:09;22.90;99.90
23544;DHT22;11950;51.230;4.012;2023-09-12T11:02:32;23.00;99.90
23544;DHT22;11950;51.230;4.012;2023-09-12T11:05:00;23.10;99.90
23544;DHT22;11950;51.230;4.012;2023-09-12T11:07:56;23.10;99.90
23544;DHT22;11950;51.230;4.012;2023-09-12T11:10:24;23.30;99.90
23544;DHT22;11950;51.230;4.012;2023-09-12T11:12:52;23.30;99.90
23544;DHT22;11950;51.230;4.012;2023-09-12T11:15:21;23.30;99.90
23544;DHT22;11950;51.230;4.012;2023-09-12T11:17:49;23.30;99.90
23544;DHT22;11950;51.230;4.012;2023-09-12T11:20:25;23.30;99.90
23544;DHT22;11950;51.230;4.012;2023-09-12T11:22:51;23.30;99.90
23544;DHT22;11950;51.230;4.012;2023-09-12T11:25:24;23.40;99.90
23544;DHT22;11950;51.230;4.012;2023-09-12T11:30:22;23.50;99.90
23544;DHT22;11950;51.230;4.012;2023-09-12T11:32:53;23.60;99.90
23544;DHT22;11950;51.230;4.012;2023-09-12T11:35:24;23.70;99.90
23544;DHT22;11950;51.230;4.012;2023-09-12T11:37:56;23.70;99.90
23544;DHT22;11950;51.230;4.012;2023-09-12T11:43:00;23.80;99.90
23544;DHT22;11950;51.230;4.012;2023-09-12T12:05:57;23.80;99.90
23544;DHT22;11950;51.230;4.012;2023-09-12T12:08:25;24.00;99.90
23544;DHT22;11950;51.230;4.012;2023-09-12T12:10:52;24.10;99.90
23544;DHT22;11950;51.230;4.012;2023-09-12T12:13:20;24.10;99.90
23544;DHT22;11950;51.230;4.012;2023-09-12T12:15:46;24.10;99.90
23544;DHT22;11950;51.230;4.012;2023-09-12T12:18:13;24.20;99.90
23544;DHT22;11950;51.230;4.012;2023-09-12T12:20:39;24.20;99.90
23544;DHT22;11950;51.230;4.012;2023-09-12T12:23:06;24.20;99.90
23544;DHT22;11950;51.230;4.012;2023-09-12T12:25:33;24.10;99.90
23544;DHT22;11950;51.230;4.012;2023-09-12T12:28:01;24.00;99.90
23544;DHT22;11950;51.230;4.012;2023-09-12T12:30:30;23.90;99.90
23544;DHT22;11950;51.230;4.012;2023-09-12T12:32:57;23.90;99.90
23544;DHT22;11950;51.230;4.012;2023-09-12T12:35:23;23.90;99.90
23544;DHT22;11950;51.230;4.012;2023-09-12T12:37:54;24.10;99.90
23544;DHT22;11950;51.230;4.012;2023-09-12T12:40:21;23.90;99.90
23544;DHT22;11950;51.230;4.012;2023-09-12T12:42:47;23.90;99.90
23544;DHT22;11950;51.230;4.012;2023-09-12T12:45:21;23.90;99.90
23544;DHT22;11950;51.230;4.012;2023-09-12T12:47:57;24.00;99.90
23544;DHT22;11950;51.230;4.012;2023-09-12T12:50:24;24.00;99.90
23544;DHT22;11950;51.230;4.012;2023-09-12T12:52:50;24.00;99.90
23544;DHT22;11950;51.230;4.012;2023-09-12T12:55:16;24.10;99.90
23544;DHT22;11950;51.230;4.012;2023-09-12T12:57:44;24.10;99.90
23544;DHT22;11950;51.230;4.012;2023-09-12T13:00:12;24.10;99.90
23544;DHT22;11950;51.230;4.012;2023-09-12T13:02:40;24.10;99.90
23544;DHT22;11950;51.230;4.012;2023-09-12T13:05:25;24.10;99.90
23544;DHT22;11950;51.230;4.012;2023-09-12T13:07:51;24.10;99.90
23544;DHT22;11950;51.230;4.012;2023-09-12T13:10:21;24.10;99.90
23544;DHT22;11950;51.230;4.012;2023-09-12T13:12:49;24.10;99.90
23544;DHT22;11950;51.230;4.012;2023-09-12T13:15:16;24.10;99.90
23544;DHT22;11950;51.230;4.012;2023-09-12T13:17:46;24.10;99.90
23544;DHT22;11950;51.230;4.012;2023-09-12T13:20:12;24.20;99.90
23544;DHT22;11950;51.230;4.012;2023-09-12T13:22:38;24.20;99.90
23544;DHT22;11950;51.230;4.012;2023-09-12T13:25:05;24.30;99.90
23544;DHT22;11950;51.230;4.012;2023-09-12T13:27:32;24.20;99.90
23544;DHT22;11950;51.230;4.012;2023-09-12T13:29:59;24.30;99.90
23544;DHT22;11950;51.230;4.012;2023-09-12T13:32:26;24.30;99.90
23544;DHT22;11950;51.230;4.012;2023-09-12T13:34:55;24.40;99.90
23544;DHT22;11950;51.230;4.012;2023-09-12T13:37:22;24.40;99.90
23544;DHT22;11950;51.230;4.012;2023-09-12T13:39:48;24.30;99.90
23544;DHT22;11950;51.230;4.012;2023-09-12T13:42:16;24.40;99.90
23544;DHT22;11950;51.230;4.012;2023-09-12T13:44:47;24.30;99.90
23544;DHT22;11950;51.230;4.012;2023-09-12T13:47:13;24.30;99.90
23544;DHT22;11950;51.230;4.012;2023-09-12T13:49:47;24.30;99.90
23544;DHT22;11950;51.230;4.012;2023-09-12T13:52:14;24.30;99.90
23544;DHT22;11950;51.230;4.012;2023-09-12T13:54:43;24.30;99.90
23544;DHT22;11950;51.230;4.012;2023-09-12T13:57:09;24.30;99.90
23544;DHT22;11950;51.230;4.012;2023-09-12T13:59:36;24.20;99.90
23544;DHT22;11950;51.230;4.012;2023-09-12T14:02:02;24.20;99.90
23544;DHT22;11950;51.230;4.012;2023-09-12T14:04:29;24.20;99.90
23544;DHT22;11950;51.230;4.012;2023-09-12T14:06:55;24.20;99.90
23544;DHT22;11950;51.230;4.012;2023-09-12T14:09:21;24.20;99.90
23544;DHT22;11950;51.230;4.012;2023-09-12T14:11:48;24.20;99.90
23544;DHT22;11950;51.230;4.012;2023-09-12T14:14:14;24.10;99.90
23544;DHT22;11950;51.230;4.012;2023-09-12T14:16:44;24.10;99.90
23544;DHT22;11950;51.230;4.012;2023-09-12T14:19:11;24.20;99.90
23544;DHT22;11950;51.230;4.012;2023-09-12T14:21:38;24.20;99.90
23544;DHT22;11950;51.230;4.012;2023-09-12T14:24:05;24.20;99.90
23544;DHT22;11950;51.230;4.012;2023-09-12T14:26:32;24.20;99.90
23544;DHT22;11950;51.230;4.012;2023-09-12T14:28:59;24.20;99.90
23544;DHT22;11950;51.230;4.012;2023-09-12T14:31:25;24.20;99.90
23544;DHT22;11950;51.230;4.012;2023-09-12T14:33:51;24.20;99.90
23544;DHT22;11950;51.230;4.012;2023-09-12T14:36:18;24.20;99.90
23544;DHT22;11950;51.230;4.012;2023-09-12T14:38:45;24.20;99.90
23544;DHT22;11950;51.230;4.012;2023-09-12T14:41:13;24.20;99.90
23544;DHT22;11950;51.230;4.012;2023-09-12T14:43:40;24.10;99.90
23544;DHT22;11950;51.230;4.012;2023-09-12T14:46:06;24.10;99.90
23544;DHT22;11950;51.230;4.012;2023-09-12T14:48:34;24.10;99.90
23544;DHT22;11950;51.230;4.012;2023-09-12T14:51:02;24.10;99.90
23544;DHT22;11950;51.230;4.012;2023-09-12T14:53:29;24.10;99.90
23544;DHT22;11950;51.230;4.012;2023-09-12T14:55:56;24.10;99.90
23544;DHT22;11950;51.230;4.012;2023-09-12T14:58:23;24.10;99.90
23544;DHT22;11950;51.230;4.012;2023-09-12T15:00:49;24.00;99.90
23544;DHT22;11950;51.230;4.012;2023-09-12T15:03:15;24.00;99.90
23544;DHT22;11950;51.230;4.012;2023-09-12T15:05:42;24.00;99.90
23544;DHT22;11950;51.230;4.012;2023-09-12T15:08:09;23.90;99.90
23544;DHT22;11950;51.230;4.012;2023-09-12T15:10:35;23.90;99.90
23544;DHT22;11950;51.230;4.012;2023-09-12T15:13:02;23.90;99.90
23544;DHT22;11950;51.230;4.012;2023-09-12T15:15:28;23.90;99.90
23544;DHT22;11950;51.230;4.012;2023-09-12T15:17:55;23.90;99.90
23544;DHT22;11950;51.230;4.012;2023-09-12T15:20:23;23.90;99.90
23544;DHT22;11950;51.230;4.012;2023-09-12T15:22:49;23.90;99.90
23544;DHT22;11950;51.230;4.012;2023-09-12T15:25:17;23.90;99.90
23544;DHT22;11950;51.230;4.012;2023-09-12T15:27:44;23.90;99.90
23544;DHT22;11950;51.230;4.012;2023-09-12T15:30:10;23.90;99.90
23544;DHT22;11950;51.230;4.012;2023-09-12T15:32:41;23.90;99.90
23544;DHT22;11950;51.230;4.012;2023-09-12T15:35:08;23.90;99.90
23544;DHT22;11950;51.230;4.012;2023-09-12T15:37:39;23.90;99.90
23544;DHT22;11950;51.230;4.012;2023-09-12T15:40:09;23.90;99.90
23544;DHT22;11950;51.230;4.012;2023-09-12T15:42:36;23.90;99.90
23544;DHT22;11950;51.230;4.012;2023-09-12T15:45:05;23.90;99.90
23544;DHT22;11950;51.230;4.012;2023-09-12T15:47:36;23.90;99.90
23544;DHT22;11950;51.230;4.012;2023-09-12T15:50:02;23.90;99.90
23544;DHT22;11950;51.230;4.012;2023-09-12T15:52:29;23.90;99.90
23544;DHT22;11950;51.230;4.012;2023-09-12T15:54:55;23.90;99.90
23544;DHT22;11950;51.230;4.012;2023-09-12T15:57:23;23.90;99.90
23544;DHT22;11950;51.230;4.012;2023-09-12T15:59:49;23.90;99.90
23544;DHT22;11950;51.230;4.012;2023-09-12T16:02:16;23.90;99.90
23544;DHT22;11950;51.230;4.012;2023-09-12T16:04:42;23.90;99.90
23544;DHT22;11950;51.230;4.012;2023-09-12T16:07:09;23.90;99.90
23544;DHT22;11950;51.230;4.012;2023-09-12T16:09:35;23.80;99.90
23544;DHT22;11950;51.230;4.012;2023-09-12T16:12:01;23.80;99.90